createdAt,value
2019-05-05T00:00:32.060Z,7.03
2019-05-05T00:04:54.455Z,6.85
2019-05-05T00:09:14.830Z,9.75
2019-05-05T00:13:35.284Z,9.73
2019-05-05T00:17:55.885Z,10.10
2019-05-05T00:22:16.577Z,6.42
2019-05-05T00:26:37.645Z,9.55
2019-05-05T00:30:58.083Z,8.03
2019-05-05T00:35:18.728Z,7.42
2019-05-05T00:39:39.688Z,8.50
2019-05-05T00:44:00.813Z,8.50
2019-05-05T00:48:21.881Z,8.68
2019-05-05T00:52:44.630Z,7.80
2019-05-05T00:57:04.686Z,9.83
2019-05-05T01:01:25.460Z,10.18
2019-05-05T01:05:46.552Z,7.00
2019-05-05T01:10:07.392Z,5.92
2019-05-05T01:14:28.095Z,7.37
2019-05-05T01:18:49.201Z,9.05
2019-05-05T01:23:10.103Z,8.88
2019-05-05T01:27:30.424Z,9.23
2019-05-05T01:31:51.478Z,8.93
2019-05-05T01:36:12.039Z,7.60
2019-05-05T01:40:32.455Z,9.05
2019-05-05T01:44:55.147Z,9.20
2019-05-05T01:49:15.691Z,7.92
2019-05-05T01:53:36.114Z,8.05
2019-05-05T01:57:57.681Z,7.58
2019-05-05T02:02:18.119Z,6.47
2019-05-05T02:06:39.175Z,5.22
2019-05-05T02:10:59.818Z,8.95
2019-05-05T02:15:21.862Z,7.33
2019-05-05T02:19:44.332Z,7.37
2019-05-05T02:24:05.285Z,9.05
2019-05-05T02:28:26.273Z,12.15
2019-05-05T02:32:46.794Z,10.72
2019-05-05T02:37:06.919Z,12.43
2019-05-05T02:41:28.116Z,16.00
2019-05-05T02:45:58.226Z,8.70
2019-05-05T02:50:19.489Z,11.95
2019-05-05T02:54:40.675Z,7.35
2019-05-05T02:59:04.424Z,9.90
2019-05-05T03:03:24.706Z,16.23
2019-05-05T03:07:45.655Z,8.50
2019-05-05T03:12:10.814Z,13.20
2019-05-05T03:16:35.033Z,10.08
2019-05-05T03:21:04.355Z,11.25
2019-05-05T03:25:18.053Z,12.35
2019-05-05T03:29:38.836Z,11.05
2019-05-05T03:34:00.538Z,15.80
2019-05-05T03:38:21.202Z,11.22
2019-05-05T03:42:41.612Z,9.18
2019-05-05T03:47:03.549Z,20.43
2019-05-05T03:51:24.332Z,9.45
2019-05-05T03:55:45.450Z,15.48
2019-05-05T04:00:07.382Z,7.65
2019-05-05T04:04:27.983Z,7.90
2019-05-05T04:08:48.442Z,8.80
2019-05-05T04:13:09.835Z,10.85
2019-05-05T04:17:30.590Z,10.85
2019-05-05T04:21:51.005Z,10.23
2019-05-05T04:26:11.591Z,11.28
2019-05-05T04:30:33.837Z,9.55
2019-05-05T04:34:54.917Z,12.03
2019-05-05T04:39:15.784Z,12.07
2019-05-05T04:43:36.400Z,9.93
2019-05-05T04:47:57.189Z,10.68
2019-05-05T04:52:17.798Z,13.62
2019-05-05T04:56:39.027Z,9.23
2019-05-05T05:00:59.575Z,13.75
2019-05-05T05:05:20.020Z,11.83
2019-05-05T05:09:40.757Z,10.50
2019-05-05T05:14:03.741Z,13.85
2019-05-05T05:18:24.649Z,10.23
2019-05-05T05:22:45.366Z,13.85
2019-05-05T05:27:05.520Z,14.33
2019-05-05T05:31:26.190Z,10.90
2019-05-05T05:35:46.799Z,9.33
2019-05-05T05:40:07.565Z,7.10
2019-05-05T05:44:28.312Z,6.50
2019-05-05T05:48:48.562Z,7.70
2019-05-05T05:53:09.131Z,6.22
2019-05-05T05:57:31.370Z,7.10
2019-05-05T06:02:06.650Z,10.72
2019-05-05T06:06:14.704Z,7.37
2019-05-05T06:10:35.220Z,11.10
2019-05-05T06:14:56.065Z,7.12
2019-05-05T06:19:16.253Z,9.45
2019-05-05T06:23:37.588Z,5.83
2019-05-05T06:27:58.209Z,7.28
2019-05-05T06:32:18.279Z,10.88
2019-05-05T06:36:38.567Z,14.78
2019-05-05T06:40:59.077Z,16.52
2019-05-05T06:45:20.124Z,13.13
2019-05-05T06:49:40.280Z,12.73
2019-05-05T06:54:01.627Z,15.83
2019-05-05T06:58:24.211Z,17.07
2019-05-05T07:02:44.580Z,14.83
2019-05-05T07:07:05.662Z,21.02
2019-05-05T07:11:26.629Z,22.90
2019-05-05T07:15:51.497Z,23.87
2019-05-05T07:20:13.579Z,20.77
2019-05-05T07:24:34.582Z,22.50
2019-05-05T07:28:55.617Z,24.52
2019-05-05T07:33:16.032Z,18.48
2019-05-05T07:37:36.563Z,20.35
2019-05-05T07:41:57.190Z,24.15
2019-05-05T07:46:17.831Z,22.22
2019-05-05T07:50:38.423Z,20.48
2019-05-05T07:54:59.188Z,25.05
2019-05-05T07:59:19.770Z,19.60
2019-05-05T08:03:40.858Z,27.22
2019-05-05T08:08:04.474Z,21.15
2019-05-05T08:12:24.928Z,23.75
2019-05-05T08:16:45.801Z,20.02
2019-05-05T08:21:07.309Z,18.87
2019-05-05T08:25:37.473Z,23.92
2019-05-05T08:29:50.850Z,29.45
2019-05-05T08:34:14.263Z,18.23
2019-05-05T08:38:34.879Z,18.25
2019-05-05T08:42:55.355Z,22.62
2019-05-05T08:47:16.607Z,24.07
2019-05-05T08:51:37.713Z,22.40
2019-05-05T08:55:59.057Z,29.85
2019-05-05T09:00:20.282Z,25.43
2019-05-05T09:04:41.702Z,29.90
2019-05-05T09:09:03.920Z,26.07
2019-05-05T09:13:25.302Z,31.87
2019-05-05T09:17:47.003Z,25.05
2019-05-05T09:22:08.763Z,27.95
2019-05-05T09:26:29.741Z,22.35
2019-05-05T09:30:50.028Z,24.25
2019-05-05T09:35:10.469Z,24.10
2019-05-05T09:39:34.721Z,14.80
2019-05-05T09:43:55.211Z,17.57
2019-05-05T09:48:15.525Z,19.98
2019-05-05T09:52:36.072Z,14.10
2019-05-05T09:56:56.319Z,18.17
2019-05-05T10:01:17.580Z,13.95
2019-05-05T10:05:38.481Z,25.12
2019-05-05T10:09:59.098Z,25.15
2019-05-05T10:14:20.010Z,14.50
2019-05-05T10:18:40.984Z,17.67
2019-05-05T10:23:01.528Z,20.20
2019-05-05T10:27:22.360Z,14.65
2019-05-05T10:31:43.775Z,23.22
2019-05-05T10:36:04.751Z,23.47
2019-05-05T10:40:25.490Z,14.90
2019-05-05T10:44:45.776Z,15.88
2019-05-05T10:49:06.943Z,10.80
2019-05-05T10:53:27.768Z,13.58
2019-05-05T10:57:49.144Z,14.00
2019-05-05T11:02:09.240Z,18.42
2019-05-05T11:06:29.728Z,16.75
2019-05-05T11:10:50.699Z,17.25
2019-05-05T11:15:14.220Z,16.67
2019-05-05T11:19:34.561Z,12.70
2019-05-05T11:23:55.297Z,11.33
2019-05-05T11:28:15.826Z,17.00
2019-05-05T11:32:36.879Z,12.93
2019-05-05T11:36:57.405Z,8.45
2019-05-05T11:41:18.033Z,9.03
2019-05-05T11:45:38.315Z,15.48
2019-05-05T11:49:58.959Z,12.75
2019-05-05T11:54:19.889Z,8.98
2019-05-05T11:58:44.053Z,14.85
2019-05-05T12:03:04.531Z,13.08
2019-05-05T12:07:25.161Z,9.55
2019-05-05T12:11:46.009Z,19.10
2019-05-05T12:16:07.111Z,9.40
2019-05-05T12:20:33.678Z,9.35
2019-05-05T12:24:54.300Z,14.18
2019-05-05T12:29:15.555Z,14.00
2019-05-05T12:33:36.180Z,11.60
2019-05-05T12:37:57.274Z,7.17
2019-05-05T12:42:19.403Z,12.73
2019-05-05T12:46:40.347Z,13.53
2019-05-05T12:51:01.761Z,11.95
2019-05-05T12:55:38.360Z,16.50
2019-05-05T12:59:46.760Z,9.43
2019-05-05T13:04:07.465Z,14.87
2019-05-05T13:08:27.986Z,14.10
2019-05-05T13:12:48.482Z,7.00
2019-05-05T13:17:09.443Z,14.15
2019-05-05T13:21:30.303Z,18.48
2019-05-05T13:25:55.944Z,10.38
2019-05-05T13:30:13.654Z,9.28
2019-05-05T13:34:34.306Z,14.13
2019-05-05T13:38:55.399Z,14.28
2019-05-05T13:43:16.382Z,11.50
2019-05-05T13:47:37.161Z,7.53
2019-05-05T13:51:57.802Z,8.70
2019-05-05T13:56:18.017Z,9.68
2019-05-05T14:00:38.739Z,8.48
2019-05-05T14:04:59.327Z,5.80
2019-05-05T14:09:19.907Z,8.48
2019-05-05T14:13:40.911Z,14.68
2019-05-05T14:18:01.282Z,13.72
2019-05-05T14:22:21.376Z,11.10
2019-05-05T14:26:42.118Z,16.15
2019-05-05T14:31:02.770Z,10.18
2019-05-05T14:35:23.902Z,8.20
2019-05-05T14:39:44.545Z,16.62
2019-05-05T14:44:04.814Z,11.05
2019-05-05T14:48:25.784Z,9.48
2019-05-05T14:52:46.223Z,6.87
2019-05-05T14:57:06.600Z,11.30
2019-05-05T15:01:27.192Z,9.00
2019-05-05T15:05:47.849Z,5.87
2019-05-05T15:10:08.494Z,16.55
2019-05-05T15:14:29.146Z,9.75
2019-05-05T15:18:49.261Z,10.50
2019-05-05T15:23:09.898Z,11.33
2019-05-05T15:27:30.562Z,8.18
2019-05-05T15:31:53.719Z,8.13
2019-05-05T15:36:14.094Z,7.62
2019-05-05T15:40:34.458Z,6.83
2019-05-05T15:44:55.359Z,14.70
2019-05-05T15:49:16.032Z,9.80
2019-05-05T15:53:36.301Z,8.43
2019-05-05T15:57:56.505Z,8.20
2019-05-05T16:02:17.334Z,6.95
2019-05-05T16:06:37.866Z,6.92
2019-05-05T16:10:58.666Z,7.20
2019-05-05T16:15:19.820Z,11.50
2019-05-05T16:19:40.260Z,9.48
2019-05-05T16:24:00.492Z,14.30
2019-05-05T16:28:20.937Z,12.82
2019-05-05T16:32:41.787Z,16.90
2019-05-05T16:37:03.859Z,9.30
2019-05-05T16:41:24.398Z,7.17
2019-05-05T16:45:44.668Z,11.57
2019-05-05T16:50:06.874Z,6.58
2019-05-05T16:54:27.604Z,5.83
2019-05-05T16:58:47.864Z,3.05
2019-05-05T17:03:08.047Z,6.25
2019-05-05T17:07:28.796Z,6.87
2019-05-05T17:11:49.604Z,7.83
2019-05-05T17:16:09.781Z,9.68
2019-05-05T17:20:30.561Z,9.93
2019-05-05T17:24:53.421Z,4.30
2019-05-05T17:29:14.599Z,8.13
2019-05-05T17:33:35.304Z,9.03
2019-05-05T17:37:55.390Z,9.65
2019-05-05T17:42:16.815Z,10.10
2019-05-05T17:46:37.218Z,9.85
2019-05-05T17:50:57.908Z,7.30
2019-05-05T17:55:18.459Z,6.97
2019-05-05T17:59:39.228Z,8.20
2019-05-05T18:03:59.810Z,13.55
2019-05-05T18:08:19.988Z,20.57
2019-05-05T18:12:40.575Z,7.62
2019-05-05T18:17:01.538Z,6.80
2019-05-05T18:21:23.624Z,10.45
2019-05-05T18:25:44.312Z,5.20
2019-05-05T18:30:05.542Z,6.87
2019-05-05T18:34:25.932Z,7.08
2019-05-05T18:38:46.831Z,14.00
2019-05-05T18:43:07.715Z,6.58
2019-05-05T18:47:28.761Z,11.28
2019-05-05T18:51:50.526Z,7.58
2019-05-05T18:56:11.682Z,9.80
2019-05-05T19:00:34.304Z,15.48
2019-05-05T19:04:55.334Z,10.28
2019-05-05T19:09:16.706Z,10.03
2019-05-05T19:13:38.431Z,11.40
2019-05-05T19:18:01.079Z,12.82
2019-05-05T19:22:21.732Z,12.93
2019-05-05T19:26:42.143Z,13.32
2019-05-05T19:31:04.298Z,9.50
2019-05-05T19:35:40.228Z,11.12
2019-05-05T19:39:51.625Z,6.67
2019-05-05T19:44:12.017Z,10.40
2019-05-05T19:48:33.977Z,11.53
2019-05-05T19:52:54.930Z,11.30
2019-05-05T19:57:15.665Z,12.13
2019-05-05T20:01:37.967Z,10.15
2019-05-05T20:05:58.631Z,8.93
2019-05-05T20:10:20.080Z,6.42
2019-05-05T20:14:43.622Z,6.67
2019-05-05T20:19:43.740Z,11.08
2019-05-05T20:24:07.367Z,7.15
2019-05-05T20:28:34.873Z,5.20
2019-05-05T20:32:57.005Z,11.73
2019-05-05T20:37:18.946Z,21.33
2019-05-05T20:41:43.609Z,6.90
2019-05-05T20:46:04.731Z,12.28
2019-05-05T20:50:26.233Z,8.53
2019-05-05T20:54:46.974Z,6.28
2019-05-05T20:59:07.604Z,6.80
2019-05-05T21:03:28.415Z,8.28
2019-05-05T21:07:49.063Z,10.48
2019-05-05T21:12:10.183Z,10.18
2019-05-05T21:16:31.288Z,5.75
2019-05-05T21:20:52.083Z,7.10
2019-05-05T21:25:14.253Z,9.90
2019-05-05T21:29:41.595Z,8.80
2019-05-05T21:33:57.564Z,6.28
2019-05-05T21:38:18.384Z,10.65
2019-05-05T21:42:39.205Z,11.45
2019-05-05T21:47:00.378Z,8.25
2019-05-05T21:51:21.381Z,6.75
2019-05-05T21:55:43.927Z,15.72
2019-05-05T22:00:04.966Z,7.58
2019-05-05T22:04:25.209Z,8.50
2019-05-05T22:08:46.494Z,8.18
2019-05-05T22:13:06.879Z,10.05
2019-05-05T22:17:27.899Z,9.68
2019-05-05T22:21:48.527Z,8.68
2019-05-05T22:26:09.826Z,10.32
2019-05-05T22:34:30.777Z,7.17
2019-05-05T22:38:51.630Z,5.12
2019-05-05T22:43:14.337Z,7.20
2019-05-05T22:47:34.795Z,11.80
2019-05-05T22:51:55.555Z,13.03
2019-05-05T22:56:15.937Z,11.95
2019-05-05T23:00:36.558Z,9.05
2019-05-05T23:04:57.012Z,4.00
2019-05-05T23:09:17.075Z,5.42
2019-05-05T23:13:37.900Z,6.53
2019-05-05T23:17:58.815Z,11.75
2019-05-05T23:22:18.835Z,6.70
2019-05-05T23:26:39.424Z,6.75
2019-05-05T23:30:59.829Z,9.60
2019-05-05T23:35:19.810Z,5.03
2019-05-05T23:39:40.329Z,15.18
2019-05-05T23:44:03.551Z,12.78
2019-05-05T23:48:24.196Z,17.20
2019-05-05T23:52:45.177Z,9.50
2019-05-05T23:57:05.608Z,9.95
